sensor_id;sensor_type;location;lat;lon;timestamp;temperature;humidity
41722;DHT22;27407;24.142;-110.310;2023-04-25T00:00:23;40.00;40.70
41722;DHT22;27407;24.142;-110.310;2023-04-25T00:02:50;39.70;39.20
41722;DHT22;27407;24.142;-110.310;2023-04-25T00:05:17;38.60;39.20
41722;DHT22;27407;24.142;-110.310;2023-04-25T00:07:44;38.60;39.00
41722;DHT22;27407;24.142;-110.310;2023-04-25T00:10:11;38.80;41.30
41722;DHT22;27407;24.142;-110.310;2023-04-25T00:12:38;38.40;41.80
41722;DHT22;27407;24.142;-110.310;2023-04-25T00:15:05;38.80;41.60
41722;DHT22;27407;24.142;-110.310;2023-04-25T00:17:32;38.30;41.30
41722;DHT22;27407;24.142;-110.310;2023-04-25T00:19:58;37.50;42.20
41722;DHT22;27407;24.142;-110.310;2023-04-25T00:22:32;38.00;42.20
41722;DHT22;27407;24.142;-110.310;2023-04-25T00:25:00;38.00;41.70
41722;DHT22;27407;24.142;-110.310;2023-04-25T00:27:27;37.50;41.40
41722;DHT22;27407;24.142;-110.310;2023-04-25T00:29:54;37.80;40.90
41722;DHT22;27407;24.142;-110.310;2023-04-25T00:32:20;38.00;42.00
41722;DHT22;27407;24.142;-110.310;2023-04-25T00:35:11;37.40;40.20
41722;DHT22;27407;24.142;-110.310;2023-04-25T00:37:41;37.50;40.30
41722;DHT22;27407;24.142;-110.310;2023-04-25T00:40:11;37.40;41.70
41722;DHT22;27407;24.142;-110.310;2023-04-25T00:42:39;37.50;41.40
41722;DHT22;27407;24.142;-110.310;2023-04-25T00:45:17;36.60;43.90
41722;DHT22;27407;24.142;-110.310;2023-04-25T00:47:45;36.50;44.90
41722;DHT22;27407;24.142;-110.310;2023-04-25T00:50:13;36.50;44.80
41722;DHT22;27407;24.142;-110.310;2023-04-25T00:52:43;36.20;44.60
41722;DHT22;27407;24.142;-110.310;2023-04-25T00:55:13;36.40;44.10
41722;DHT22;27407;24.142;-110.310;2023-04-25T00:57:46;36.30;43.80
41722;DHT22;27407;24.142;-110.310;2023-04-25T01:00:16;36.50;43.90
41722;DHT22;27407;24.142;-110.310;2023-04-25T01:02:45;36.50;45.50
41722;DHT22;27407;24.142;-110.310;2023-04-25T01:05:15;36.00;46.30
41722;DHT22;27407;24.142;-110.310;2023-04-25T01:07:42;35.10;47.90
41722;DHT22;27407;24.142;-110.310;2023-04-25T01:10:28;35.00;48.30
41722;DHT22;27407;24.142;-110.310;2023-04-25T01:12:55;34.70;50.00
41722;DHT22;27407;24.142;-110.310;2023-04-25T01:15:22;34.20;50.10
41722;DHT22;27407;24.142;-110.310;2023-04-25T01:17:49;34.00;50.30
41722;DHT22;27407;24.142;-110.310;2023-04-25T01:20:16;33.50;50.70
41722;DHT22;27407;24.142;-110.310;2023-04-25T01:22:43;33.10;51.80
41722;DHT22;27407;24.142;-110.310;2023-04-25T01:25:10;33.00;53.20
41722;DHT22;27407;24.142;-110.310;2023-04-25T01:27:38;32.10;55.10
41722;DHT22;27407;24.142;-110.310;2023-04-25T01:30:05;31.50;55.90
41722;DHT22;27407;24.142;-110.310;2023-04-25T01:32:34;31.00;57.10
41722;DHT22;27407;24.142;-110.310;2023-04-25T01:35:06;30.30;59.10
41722;DHT22;27407;24.142;-110.310;2023-04-25T01:37:42;29.60;60.60
41722;DHT22;27407;24.142;-110.310;2023-04-25T01:40:10;29.40;61.30
41722;DHT22;27407;24.142;-110.310;2023-04-25T01:42:39;29.10;62.00
41722;DHT22;27407;24.142;-110.310;2023-04-25T01:45:07;28.60;63.80
41722;DHT22;27407;24.142;-110.310;2023-04-25T01:47:38;28.60;64.50
41722;DHT22;27407;24.142;-110.310;2023-04-25T01:50:10;28.60;65.30
41722;DHT22;27407;24.142;-110.310;2023-04-25T01:52:37;28.40;66.30
41722;DHT22;27407;24.142;-110.310;2023-04-25T01:55:07;28.30;66.50
41722;DHT22;27407;24.142;-110.310;2023-04-25T01:57:34;28.00;67.40
41722;DHT22;27407;24.142;-110.310;2023-04-25T02:00:05;27.90;68.40
41722;DHT22;27407;24.142;-110.310;2023-04-25T02:02:33;27.60;69.30
41722;DHT22;27407;24.142;-110.310;2023-04-25T02:04:59;27.50;69.70
41722;DHT22;27407;24.142;-110.310;2023-04-25T02:07:35;27.30;69.90
41722;DHT22;27407;24.142;-110.310;2023-04-25T02:10:05;27.00;71.30
41722;DHT22;27407;24.142;-110.310;2023-04-25T02:12:32;26.90;72.40
41722;DHT22;27407;24.142;-110.310;2023-04-25T02:15:02;26.70;73.00
41722;DHT22;27407;24.142;-110.310;2023-04-25T02:17:28;26.60;74.00
41722;DHT22;27407;24.142;-110.310;2023-04-25T02:19:55;26.50;74.20
41722;DHT22;27407;24.142;-110.310;2023-04-25T02:22:22;26.50;74.50
41722;DHT22;27407;24.142;-110.310;2023-04-25T02:24:48;26.40;74.90
41722;DHT22;27407;24.142;-110.310;2023-04-25T02:27:15;26.10;76.00
41722;DHT22;27407;24.142;-110.310;2023-04-25T02:29:42;25.80;77.00
41722;DHT22;27407;24.142;-110.310;2023-04-25T02:32:08;25.60;78.10
41722;DHT22;27407;24.142;-110.310;2023-04-25T02:34:35;25.60;79.00
41722;DHT22;27407;24.142;-110.310;2023-04-25T02:37:02;25.50;79.40
41722;DHT22;27407;24.142;-110.310;2023-04-25T02:39:32;25.40;80.90
41722;DHT22;27407;24.142;-110.310;2023-04-25T02:41:58;25.40;82.10
41722;DHT22;27407;24.142;-110.310;2023-04-25T02:44:27;25.20;82.80
41722;DHT22;27407;24.142;-110.310;2023-04-25T02:46:53;25.00;83.10
41722;DHT22;27407;24.142;-110.310;2023-04-25T02:49:20;24.80;83.60
41722;DHT22;27407;24.142;-110.310;2023-04-25T02:51:46;24.80;84.10
41722;DHT22;27407;24.142;-110.310;2023-04-25T02:54:13;24.80;84.80
41722;DHT22;27407;24.142;-110.310;2023-04-25T02:56:40;24.80;86.30
41722;DHT22;27407;24.142;-110.310;2023-04-25T02:59:09;24.50;87.90
41722;DHT22;27407;24.142;-110.310;2023-04-25T03:01:35;24.40;89.40
41722;DHT22;27407;24.142;-110.310;2023-04-25T03:04:02;24.20;90.60
41722;DHT22;27407;24.142;-110.310;2023-04-25T03:06:28;24.00;91.30
41722;DHT22;27407;24.142;-110.310;2023-04-25T03:08:55;24.10;91.80
41722;DHT22;27407;24.142;-110.310;2023-04-25T03:11:22;24.00;92.50
41722;DHT22;27407;24.142;-110.310;2023-04-25T03:13:48;24.00;93.20
41722;DHT22;27407;24.142;-110.310;2023-04-25T03:16:15;24.00;93.90
41722;DHT22;27407;24.142;-110.310;2023-04-25T03:18:42;23.90;95.20
41722;DHT22;27407;24.142;-110.310;2023-04-25T03:21:08;23.80;96.00
41722;DHT22;27407;24.142;-110.310;2023-04-25T03:23:35;23.60;97.60
41722;DHT22;27407;24.142;-110.310;2023-04-25T03:26:02;23.50;99.40
41722;DHT22;27407;24.142;-110.310;2023-04-25T03:28:28;23.50;99.90
41722;DHT22;27407;24.142;-110.310;2023-04-25T03:30:55;23.50;99.90
41722;DHT22;27407;24.142;-110.310;2023-04-25T03:33:22;23.30;99.90
41722;DHT22;27407;24.142;-110.310;2023-04-25T03:35:48;23.20;99.90
41722;DHT22;27407;24.142;-110.310;2023-04-25T03:38:16;23.10;99.90
41722;DHT22;27407;24.142;-110.310;2023-04-25T03:40:43;22.90;99.90
41722;DHT22;27407;24.142;-110.310;2023-04-25T03:43:09;22.90;99.90
41722;DHT22;27407;24.142;-110.310;2023-04-25T03:45:37;22.90;99.90
41722;DHT22;27407;24.142;-110.310;2023-04-25T03:48:04;22.90;99.90
41722;DHT22;27407;24.142;-110.310;2023-04-25T03:50:30;22.90;99.90
41722;DHT22;27407;24.142;-110.310;2023-04-25T03:52:57;22.60;99.90
41722;DHT22;27407;24.142;-110.310;2023-04-25T03:55:24;22.50;99.90
41722;DHT22;27407;24.142;-110.310;2023-04-25T03:57:50;22.60;99.90
41722;DHT22;27407;24.142;-110.310;2023-04-25T04:00:17;22.60;99.90
41722;DHT22;27407;24.142;-110.310;2023-04-25T04:02:44;22.40;99.90
41722;DHT22;27407;24.142;-110.310;2023-04-25T04:05:10;22.30;99.90
41722;DHT22;27407;24.142;-110.310;2023-04-25T04:07:37;22.10;99.90
41722;DHT22;27407;24.142;-110.310;2023-04-25T04:10:10;22.00;99.90
41722;DHT22;27407;24.142;-110.310;2023-04-25T04:12:37;21.90;99.90
41722;DHT22;27407;24.142;-110.310;2023-04-25T04:15:05;21.80;99.90
41722;DHT22;27407;24.142;-110.310;2023-04-25T04:17:32;21.60;99.90
41722;DHT22;27407;24.142;-110.310;2023-04-25T04:20:00;21.70;99.90
41722;DHT22;27407;24.142;-110.310;2023-04-25T04:22:29;21.70;99.90
41722;DHT22;27407;24.142;-110.310;2023-04-25T04:24:56;21.50;99.90
41722;DHT22;27407;24.142;-110.310;2023-04-25T04:27:23;21.60;99.90
41722;DHT22;27407;24.142;-110.310;2023-04-25T04:29:50;21.60;99.90
41722;DHT22;27407;24.142;-110.310;2023-04-25T04:32:18;21.60;99.90
41722;DHT22;27407;24.142;-110.310;2023-04-25T04:34:45;21.50;99.90
41722;DHT22;27407;24.142;-110.310;2023-04-25T04:37:13;21.60;99.90
41722;DHT22;27407;24.142;-110.310;2023-04-25T04:39:42;21.60;99.90
41722;DHT22;27407;24.142;-110.310;2023-04-25T04:42:12;21.50;99.90
41722;DHT22;27407;24.142;-110.310;2023-04-25T04:44:39;21.40;99.90
41722;DHT22;27407;24.142;-110.310;2023-04-25T04:47:06;21.40;99.90
41722;DHT22;27407;24.142;-110.310;2023-04-25T04:49:32;21.20;99.90
41722;DHT22;27407;24.142;-110.310;2023-04-25T04:51:59;21.10;99.90
41722;DHT22;27407;24.142;-110.310;2023-04-25T04:54:26;21.10;99.90
41722;DHT22;27407;24.142;-110.310;2023-04-25T04:56:53;20.90;99.90
41722;DHT22;27407;24.142;-110.310;2023-04-25T04:59:20;20.90;99.90
41722;DHT22;27407;24.142;-110.310;2023-04-25T05:01:47;20.90;99.90
41722;DHT22;27407;24.142;-110.310;2023-04-25T05:04:13;20.80;99.90
41722;DHT22;27407;24.142;-110.310;2023-04-25T05:06:40;20.80;99.90
41722;DHT22;27407;24.142;-110.310;2023-04-25T05:09:07;20.80;99.90
41722;DHT22;27407;24.142;-110.310;2023-04-25T05:11:33;20.70;99.90
41722;DHT22;27407;24.142;-110.310;2023-04-25T05:14:00;20.60;99.90
41722;DHT22;27407;24.142;-110.310;2023-04-25T05:16:26;20.60;99.90
41722;DHT22;27407;24.142;-110.310;2023-04-25T05:18:53;20.60;99.90
41722;DHT22;27407;24.142;-110.310;2023-04-25T05:21:20;20.60;99.90
41722;DHT22;27407;24.142;-110.310;2023-04-25T05:23:46;20.50;99.90
41722;DHT22;27407;24.142;-110.310;2023-04-25T05:26:16;20.50;99.90
41722;DHT22;27407;24.142;-110.310;2023-04-25T05:28:43;20.60;99.90
41722;DHT22;27407;24.142;-110.310;2023-04-25T05:31:12;20.50;99.90
41722;DHT22;27407;24.142;-110.310;2023-04-25T05:33:39;20.60;99.90
41722;DHT22;27407;24.142;-110.310;2023-04-25T05:36:06;20.40;99.90
41722;DHT22;27407;24.142;-110.310;2023-04-25T05:38:32;20.30;99.90
41722;DHT22;27407;24.142;-110.310;2023-04-25T05:40:59;20.40;99.90
41722;DHT22;27407;24.142;-110.310;2023-04-25T05:43:29;20.30;99.90
41722;DHT22;27407;24.142;-110.310;2023-04-25T05:45:55;20.30;99.90
41722;DHT22;27407;24.142;-110.310;2023-04-25T05:48:22;20.20;99.90
41722;DHT22;27407;24.142;-110.310;2023-04-25T05:50:49;20.20;99.90
41722;DHT22;27407;24.142;-110.310;2023-04-25T05:53:19;20.10;99.90
41722;DHT22;27407;24.142;-110.310;2023-04-25T05:55:47;20.20;99.90
41722;DHT22;27407;24.142;-110.310;2023-04-25T05:58:13;20.20;99.90
41722;DHT22;27407;24.142;-110.310;2023-04-25T06:00:40;20.20;99.90
41722;DHT22;27407;24.142;-110.310;2023-04-25T06:03:07;20.30;99.90
41722;DHT22;27407;24.142;-110.310;2023-04-25T06:05:38;20.30;99.90
41722;DHT22;27407;24.142;-110.310;2023-04-25T06:08:07;20.30;99.90
41722;DHT22;27407;24.142;-110.310;2023-04-25T06:10:34;20.30;99.90
41722;DHT22;27407;24.142;-110.310;2023-04-25T06:13:01;20.20;99.90
41722;DHT22;27407;24.142;-110.310;2023-04-25T06:15:28;20.30;99.90
41722;DHT22;27407;24.142;-110.310;2023-04-25T06:17:55;20.10;99.90
41722;DHT22;27407;24.142;-110.310;2023-04-25T06:20:22;20.10;99.90
41722;DHT22;27407;24.142;-110.310;2023-04-25T06:22:50;20.00;99.90
41722;DHT22;27407;24.142;-110.310;2023-04-25T06:25:18;19.90;99.90
41722;DHT22;27407;24.142;-110.310;2023-04-25T06:27:45;19.90;99.90
41722;DHT22;27407;24.142;-110.310;2023-04-25T06:30:20;20.00;99.90
41722;DHT22;27407;24.142;-110.310;2023-04-25T06:33:04;19.80;99.90
41722;DHT22;27407;24.142;-110.310;2023-04-25T06:35:31;19.90;99.90
41722;DHT22;27407;24.142;-110.310;2023-04-25T06:38:00;20.00;99.90
41722;DHT22;27407;24.142;-110.310;2023-04-25T06:40:36;19.90;99.90
41722;DHT22;27407;24.142;-110.310;2023-04-25T06:43:02;19.80;99.90
41722;DHT22;27407;24.142;-110.310;2023-04-25T06:45:38;19.80;99.90
41722;DHT22;27407;24.142;-110.310;2023-04-25T06:48:15;19.90;99.90
41722;DHT22;27407;24.142;-110.310;2023-04-25T06:50:52;19.90;99.90
41722;DHT22;27407;24.142;-110.310;2023-04-25T06:53:25;19.80;99.90
41722;DHT22;27407;24.142;-110.310;2023-04-25T06:55:54;19.80;99.90
41722;DHT22;27407;24.142;-110.310;2023-04-25T06:58:29;19.90;99.90
41722;DHT22;27407;24.142;-110.310;2023-04-25T07:01:01;19.70;99.90
41722;DHT22;27407;24.142;-110.310;2023-04-25T07:03:44;19.80;99.90
41722;DHT22;27407;24.142;-110.310;2023-04-25T07:06:11;19.90;99.90
41722;DHT22;27407;24.142;-110.310;2023-04-25T07:08:38;19.80;99.90
41722;DHT22;27407;24.142;-110.310;2023-04-25T07:11:04;19.80;99.90
41722;DHT22;27407;24.142;-110.310;2023-04-25T07:13:42;19.80;99.90
41722;DHT22;27407;24.142;-110.310;2023-04-25T07:16:27;19.60;99.90
41722;DHT22;27407;24.142;-110.310;2023-04-25T07:19:02;19.60;99.90
41722;DHT22;27407;24.142;-110.310;2023-04-25T07:21:38;19.50;99.90
41722;DHT22;27407;24.142;-110.310;2023-04-25T07:24:05;19.50;99.90
41722;DHT22;27407;24.142;-110.310;2023-04-25T07:26:32;19.40;99.90
41722;DHT22;27407;24.142;-110.310;2023-04-25T07:29:02;19.40;99.90
41722;DHT22;27407;24.142;-110.310;2023-04-25T07:31:43;19.40;99.90
41722;DHT22;27407;24.142;-110.310;2023-04-25T07:34:13;19.40;99.90
41722;DHT22;27407;24.142;-110.310;2023-04-25T07:36:39;19.40;99.90
41722;DHT22;27407;24.142;-110.310;2023-04-25T07:39:12;19.30;99.90
41722;DHT22;27407;24.142;-110.310;2023-04-25T07:41:38;19.40;99.90
41722;DHT22;27407;24.142;-110.310;2023-04-25T07:44:14;19.40;99.90
41722;DHT22;27407;24.142;-110.310;2023-04-25T07:46:46;19.30;99.90
41722;DHT22;27407;24.142;-110.310;2023-04-25T07:49:13;19.30;99.90
41722;DHT22;27407;24.142;-110.310;2023-04-25T07:51:40;19.20;99.90
41722;DHT22;27407;24.142;-110.310;2023-04-25T07:54:07;19.00;99.90
41722;DHT22;27407;24.142;-110.310;2023-04-25T07:56:33;19.10;99.90
41722;DHT22;27407;24.142;-110.310;2023-04-25T07:59:01;19.00;99.90
41722;DHT22;27407;24.142;-110.310;2023-04-25T08:01:27;18.90;99.90
41722;DHT22;27407;24.142;-110.310;2023-04-25T08:03:54;18.90;99.90
41722;DHT22;27407;24.142;-110.310;2023-04-25T08:06:20;18.90;99.90
41722;DHT22;27407;24.142;-110.310;2023-04-25T08:08:47;18.80;99.90
41722;DHT22;27407;24.142;-110.310;2023-04-25T08:11:14;18.80;99.90
41722;DHT22;27407;24.142;-110.310;2023-04-25T08:13:50;18.90;99.90
41722;DHT22;27407;24.142;-110.310;2023-04-25T08:16:25;18.90;99.90
41722;DHT22;27407;24.142;-110.310;2023-04-25T08:18:55;18.90;99.90
41722;DHT22;27407;24.142;-110.310;2023-04-25T08:21:47;18.80;99.90
41722;DHT22;27407;24.142;-110.310;2023-04-25T08:24:22;18.90;99.90
41722;DHT22;27407;24.142;-110.310;2023-04-25T08:26:51;18.90;99.90
41722;DHT22;27407;24.142;-110.310;2023-04-25T08:29:21;18.90;99.90
41722;DHT22;27407;24.142;-110.310;2023-04-25T08:31:49;18.90;99.90
41722;DHT22;27407;24.142;-110.310;2023-04-25T08:34:17;18.80;99.90
41722;DHT22;27407;24.142;-110.310;2023-04-25T08:36:58;18.70;99.90
41722;DHT22;27407;24.142;-110.310;2023-04-25T08:39:30;18.70;99.90
41722;DHT22;27407;24.142;-110.310;2023-04-25T08:41:57;18.70;99.90
41722;DHT22;27407;24.142;-110.310;2023-04-25T08:44:24;18.80;99.90
41722;DHT22;27407;24.142;-110.310;2023-04-25T08:47:04;18.70;99.90
41722;DHT22;27407;24.142;-110.310;2023-04-25T08:49:38;18.70;99.90
41722;DHT22;27407;24.142;-110.310;2023-04-25T08:52:22;18.50;99.90
41722;DHT22;27407;24.142;-110.310;2023-04-25T08:54:57;18.60;99.90
41722;DHT22;27407;24.142;-110.310;2023-04-25T08:57:46;18.50;99.90
41722;DHT22;27407;24.142;-110.310;2023-04-25T09:00:16;18.40;99.90
41722;DHT22;27407;24.142;-110.310;2023-04-25T09:02:48;18.60;99.90
41722;DHT22;27407;24.142;-110.310;2023-04-25T09:05:20;18.30;99.90
41722;DHT22;27407;24.142;-110.310;2023-04-25T09:07:49;18.30;99.90
41722;DHT22;27407;24.142;-110.310;2023-04-25T09:10:16;18.30;99.90
41722;DHT22;27407;24.142;-110.310;2023-04-25T09:13:08;18.30;99.90
41722;DHT22;27407;24.142;-110.310;2023-04-25T09:15:53;18.40;99.90
41722;DHT22;27407;24.142;-110.310;2023-04-25T09:20:54;18.20;99.90
41722;DHT22;27407;24.142;-110.310;2023-04-25T09:23:22;18.10;99.90
41722;DHT22;27407;24.142;-110.310;2023-04-25T09:25:51;18.20;99.90
41722;DHT22;27407;24.142;-110.310;2023-04-25T09:28:24;18.10;99.90
41722;DHT22;27407;24.142;-110.310;2023-04-25T09:30:56;18.10;99.90
41722;DHT22;27407;24.142;-110.310;2023-04-25T09:33:32;18.00;99.90
41722;DHT22;27407;24.142;-110.310;2023-04-25T09:36:06;18.10;99.90
41722;DHT22;27407;24.142;-110.310;2023-04-25T09:38:41;18.00;99.90
41722;DHT22;27407;24.142;-110.310;2023-04-25T09:41:08;18.00;99.90
41722;DHT22;27407;24.142;-110.310;2023-04-25T09:43:36;18.00;99.90
41722;DHT22;27407;24.142;-110.310;2023-04-25T09:46:07;17.90;99.90
41722;DHT22;27407;24.142;-110.310;2023-04-25T09:48:34;17.90;99.90
41722;DHT22;27407;24.142;-110.310;2023-04-25T09:51:13;18.00;99.90
41722;DHT22;27407;24.142;-110.310;2023-04-25T09:53:45;18.10;99.90
41722;DHT22;27407;24.142;-110.310;2023-04-25T09:56:17;17.90;99.90
41722;DHT22;27407;24.142;-110.310;2023-04-25T09:59:05;17.90;99.90
41722;DHT22;27407;24.142;-110.310;2023-04-25T10:01:43;17.80;99.90
41722;DHT22;27407;24.142;-110.310;2023-04-25T10:04:14;17.90;99.90
41722;DHT22;27407;24.142;-110.310;2023-04-25T10:06:43;18.00;99.90
41722;DHT22;27407;24.142;-110.310;2023-04-25T10:09:10;17.80;99.90
41722;DHT22;27407;24.142;-110.310;2023-04-25T10:11:39;17.80;99.90
41722;DHT22;27407;24.142;-110.310;2023-04-25T10:14:06;17.80;99.90
41722;DHT22;27407;24.142;-110.310;2023-04-25T10:16:33;17.80;99.90
41722;DHT22;27407;24.142;-110.310;2023-04-25T10:19:01;17.90;99.90
41722;DHT22;27407;24.142;-110.310;2023-04-25T10:21:29;17.70;99.90
41722;DHT22;27407;24.142;-110.310;2023-04-25T10:23:58;17.70;99.90
41722;DHT22;27407;24.142;-110.310;2023-04-25T10:26:25;17.70;99.90
41722;DHT22;27407;24.142;-110.310;2023-04-25T10:28:56;17.80;99.90
41722;DHT22;27407;24.142;-110.310;2023-04-25T10:31:27;17.80;99.90
41722;DHT22;27407;24.142;-110.310;2023-04-25T10:33:55;17.80;99.90
41722;DHT22;27407;24.142;-110.310;2023-04-25T10:36:23;18.00;99.90
41722;DHT22;27407;24.142;-110.310;2023-04-25T10:38:51;17.90;99.90
41722;DHT22;27407;24.142;-110.310;2023-04-25T10:41:20;18.00;99.90
41722;DHT22;27407;24.142;-110.310;2023-04-25T10:43:48;17.90;99.90
41722;DHT22;27407;24.142;-110.310;2023-04-25T10:46:22;17.90;99.90
41722;DHT22;27407;24.142;-110.310;2023-04-25T10:48:57;17.90;99.90
41722;DHT22;27407;24.142;-110.310;2023-04-25T10:51:28;17.70;99.90
41722;DHT22;27407;24.142;-110.310;2023-04-25T10:54:06;17.80;99.90
41722;DHT22;27407;24.142;-110.310;2023-04-25T10:56:33;17.90;99.90
41722;DHT22;27407;24.142;-110.310;2023-04-25T10:59:12;18.00;99.90
41722;DHT22;27407;24.142;-110.310;2023-04-25T11:01:40;17.90;99.90
41722;DHT22;27407;24.142;-110.310;2023-04-25T11:09:36;17.90;99.90
41722;DHT22;27407;24.142;-110.310;2023-04-25T11:12:04;17.90;99.90
41722;DHT22;27407;24.142;-110.310;2023-04-25T11:14:31;17.80;99.90
41722;DHT22;27407;24.142;-110.310;2023-04-25T11:16:58;17.90;99.90
41722;DHT22;27407;24.142;-110.310;2023-04-25T11:19:37;17.80;99.90
41722;DHT22;27407;24.142;-110.310;2023-04-25T11:22:13;17.70;99.90
41722;DHT22;27407;24.142;-110.310;2023-04-25T11:24:43;17.70;99.90
41722;DHT22;27407;24.142;-110.310;2023-04-25T11:27:13;17.70;99.90
41722;DHT22;27407;24.142;-110.310;2023-04-25T11:29:40;17.70;99.90
41722;DHT22;27407;24.142;-110.310;2023-04-25T11:32:09;17.60;99.90
41722;DHT22;27407;24.142;-110.310;2023-04-25T11:34:42;17.60;99.90
41722;DHT22;27407;24.142;-110.310;2023-04-25T11:37:18;17.50;99.90
41722;DHT22;27407;24.142;-110.310;2023-04-25T11:39:51;17.50;99.90
41722;DHT22;27407;24.142;-110.310;2023-04-25T11:42:18;17.50;99.90
41722;DHT22;27407;24.142;-110.310;2023-04-25T11:44:46;17.40;99.90
41722;DHT22;27407;24.142;-110.310;2023-04-25T11:47:12;17.30;99.90
41722;DHT22;27407;24.142;-110.310;2023-04-25T11:49:39;17.30;99.90
41722;DHT22;27407;24.142;-110.310;2023-04-25T11:52:09;17.30;99.90
41722;DHT22;27407;24.142;-110.310;2023-04-25T11:54:44;17.10;99.90
41722;DHT22;27407;24.142;-110.310;2023-04-25T11:57:12;17.20;99.90
41722;DHT22;27407;24.142;-110.310;2023-04-25T11:59:38;17.10;99.90
41722;DHT22;27407;24.142;-110.310;2023-04-25T12:02:05;17.10;99.90
41722;DHT22;27407;24.142;-110.310;2023-04-25T12:04:33;17.10;99.90
41722;DHT22;27407;24.142;-110.310;2023-04-25T12:06:59;17.00;99.90
41722;DHT22;27407;24.142;-110.310;2023-04-25T12:09:32;17.00;99.90
41722;DHT22;27407;24.142;-110.310;2023-04-25T12:12:00;17.10;99.90
41722;DHT22;27407;24.142;-110.310;2023-04-25T12:14:31;17.10;99.90
41722;DHT22;27407;24.142;-110.310;2023-04-25T12:17:00;17.00;99.90
41722;DHT22;27407;24.142;-110.310;2023-04-25T12:19:32;17.00;99.90
41722;DHT22;27407;24.142;-110.310;2023-04-25T12:22:10;17.10;99.90
41722;DHT22;27407;24.142;-110.310;2023-04-25T12:24:45;17.00;99.90
41722;DHT22;27407;24.142;-110.310;2023-04-25T12:27:15;17.00;99.90
41722;DHT22;27407;24.142;-110.310;2023-04-25T12:29:51;17.00;99.90
41722;DHT22;27407;24.142;-110.310;2023-04-25T12:32:18;17.00;99.90
41722;DHT22;27407;24.142;-110.310;2023-04-25T12:34:45;17.00;99.90
41722;DHT22;27407;24.142;-110.310;2023-04-25T12:37:12;17.00;99.90
41722;DHT22;27407;24.142;-110.310;2023-04-25T12:39:39;17.10;99.90
41722;DHT22;27407;24.142;-110.310;2023-04-25T12:42:06;17.00;99.90
41722;DHT22;27407;24.142;-110.310;2023-04-25T12:44:34;16.80;99.90
41722;DHT22;27407;24.142;-110.310;2023-04-25T12:47:00;16.90;99.90
41722;DHT22;27407;24.142;-110.310;2023-04-25T12:49:29;16.80;99.90
41722;DHT22;27407;24.142;-110.310;2023-04-25T12:51:55;16.90;99.90
41722;DHT22;27407;24.142;-110.310;2023-04-25T12:54:22;16.90;99.90
41722;DHT22;27407;24.142;-110.310;2023-04-25T12:56:49;16.90;99.90
41722;DHT22;27407;24.142;-110.310;2023-04-25T12:59:17;17.00;99.90
41722;DHT22;27407;24.142;-110.310;2023-04-25T13:01:43;17.00;99.90
41722;DHT22;27407;24.142;-110.310;2023-04-25T13:04:13;17.10;99.90
41722;DHT22;27407;24.142;-110.310;2023-04-25T13:06:40;17.20;99.90
41722;DHT22;27407;24.142;-110.310;2023-04-25T13:09:09;17.10;99.90
41722;DHT22;27407;24.142;-110.310;2023-04-25T13:11:38;17.20;99.90
41722;DHT22;27407;24.142;-110.310;2023-04-25T13:14:05;17.30;99.90
41722;DHT22;27407;24.142;-110.310;2023-04-25T13:16:32;17.40;99.90
41722;DHT22;27407;24.142;-110.310;2023-04-25T13:18:58;17.40;99.90
41722;DHT22;27407;24.142;-110.310;2023-04-25T13:21:25;17.40;99.90
41722;DHT22;27407;24.142;-110.310;2023-04-25T13:23:53;17.40;99.90
41722;DHT22;27407;24.142;-110.310;2023-04-25T13:26:19;17.50;99.90
41722;DHT22;27407;24.142;-110.310;2023-04-25T13:28:46;17.50;99.90
41722;DHT22;27407;24.142;-110.310;2023-04-25T13:31:13;17.60;99.90
41722;DHT22;27407;24.142;-110.310;2023-04-25T13:33:39;17.70;99.90
41722;DHT22;27407;24.142;-110.310;2023-04-25T13:36:06;17.90;99.90
41722;DHT22;27407;24.142;-110.310;2023-04-25T13:38:33;18.10;99.90
41722;DHT22;27407;24.142;-110.310;2023-04-25T13:40:59;18.10;99.90
41722;DHT22;27407;24.142;-110.310;2023-04-25T13:43:26;18.00;99.90
41722;DHT22;27407;24.142;-110.310;2023-04-25T13:45:53;18.10;99.90
41722;DHT22;27407;24.142;-110.310;2023-04-25T13:48:24;18.20;99.90
41722;DHT22;27407;24.142;-110.310;2023-04-25T13:50:51;18.20;99.90
41722;DHT22;27407;24.142;-110.310;2023-04-25T13:53:17;18.20;99.90
41722;DHT22;27407;24.142;-110.310;2023-04-25T13:55:44;18.20;99.90
41722;DHT22;27407;24.142;-110.310;2023-04-25T13:58:11;18.20;99.90
41722;DHT22;27407;24.142;-110.310;2023-04-25T14:00:39;18.20;99.90
41722;DHT22;27407;24.142;-110.310;2023-04-25T14:03:08;18.50;99.90
41722;DHT22;27407;24.142;-110.310;2023-04-25T14:05:35;18.40;99.90
41722;DHT22;27407;24.142;-110.310;2023-04-25T14:08:09;18.30;99.90
41722;DHT22;27407;24.142;-110.310;2023-04-25T14:10:37;18.30;99.90
41722;DHT22;27407;24.142;-110.310;2023-04-25T14:13:05;18.30;99.90
41722;DHT22;27407;24.142;-110.310;2023-04-25T14:15:33;18.10;99.90
41722;DHT22;27407;24.142;-110.310;2023-04-25T14:18:01;18.30;99.90
41722;DHT22;27407;24.142;-110.310;2023-04-25T14:20:28;18.40;99.90
41722;DHT22;27407;24.142;-110.310;2023-04-25T14:22:55;18.40;99.90
41722;DHT22;27407;24.142;-110.310;2023-04-25T14:25:27;18.60;99.90
41722;DHT22;27407;24.142;-110.310;2023-04-25T14:27:54;18.70;99.90
41722;DHT22;27407;24.142;-110.310;2023-04-25T14:30:21;18.80;99.90
41722;DHT22;27407;24.142;-110.310;2023-04-25T14:32:49;18.50;99.90
41722;DHT22;27407;24.142;-110.310;2023-04-25T14:35:18;18.60;99.90
41722;DHT22;27407;24.142;-110.310;2023-04-25T14:37:45;18.70;99.90
41722;DHT22;27407;24.142;-110.310;2023-04-25T14:40:12;18.60;99.90
41722;DHT22;27407;24.142;-110.310;2023-04-25T14:42:43;18.70;99.90
41722;DHT22;27407;24.142;-110.310;2023-04-25T14:45:09;18.70;99.90
41722;DHT22;27407;24.142;-110.310;2023-04-25T14:47:37;18.70;99.90
41722;DHT22;27407;24.142;-110.310;2023-04-25T14:50:04;18.80;99.90
41722;DHT22;27407;24.142;-110.310;2023-04-25T14:52:31;19.00;99.90
41722;DHT22;27407;24.142;-110.310;2023-04-25T14:54:58;18.90;99.90
41722;DHT22;27407;24.142;-110.310;2023-04-25T14:57:28;19.00;99.90
41722;DHT22;27407;24.142;-110.310;2023-04-25T14:59:54;18.90;99.90
41722;DHT22;27407;24.142;-110.310;2023-04-25T15:02:21;19.00;99.90
41722;DHT22;27407;24.142;-110.310;2023-04-25T15:04:48;19.20;99.90
41722;DHT22;27407;24.142;-110.310;2023-04-25T15:07:15;19.50;99.90